Main page
METAR-TAF:

METAR-TAF

Airports :

Rijeka, Croatia

Rijeka Airport

latitude: 45-13N, longitude: 014-35E, elevation: 85 m

Current weather observation

The report was made 10 minutes ago, at 00:00 UTC
Wind 2 kt from variable directions
Temperature 13°C
Humidity 88%
Pressure 1018 hPa
Visibility 10 km or more
no clouds below 1500 m and no cumulonimbus

METAR: LDRI 230000Z VRB02KT CAVOK 13/11 Q1018

Time: 02:10 (00:10 UTC)

Forecast

The report was made 45 minutes ago, at 23:25 UTC
Forecast valid from 23 at 00 UTC to 24 at 00 UTC
Wind 2 kt from variable directions
Visibility 10 km or more
no clouds below 1500 m and no cumulonimbus
Probability 30% :
Temporary
from 23 at 10 UTC to 23 at 16 UTC
Wind 7 kt from the West/Northwest

TAF: LDRI 222325Z 2300/2400 VRB02KT CAVOK TX23/2312Z TN12/2304Z PROB30 TEMPO 2310/2316 30007KT

Weather observations and forecasts of more than 4000 airports (METAR and TAF reports).

The available stations are represented by yellow and red dots on the map.

Hover mouse over dot to see the name of the station.

Then click to see weather observations and forecasts.

To change the map : click on the green buttons with a black cross to zoom in, on the green button with a dash to zoom out, or on the green arrows for adjacent maps.


METAR-TAF: